Terminal Aerodrome Forecast
Issued by NWS Austin/San Antonio, TX

Home | Current Version | Previous Version | Text Only | Print | Product List | Glossary On
Versions: 1 2 3 4 5 6 7 8 9 10 11 12 13 14 15 16 17 18 19 20 21 22 23 24 25 26 27 28
000
FTUS44 KEWX 242332
TAFDRT
TAF
KDRT 242332Z 2500/2524 13012G22KT P6SM SCT040
     FM250700 11010KT P6SM OVC015
     FM251200 12009KT 6SM BR OVC007
     FM251700 13012KT P6SM BKN012 OVC025
     FM252100 14010KT P6SM SCT030 BKN080=

USA.gov is the U.S. government's official web portal to all federal, state and local government web resources and services.